sensor_id;sensor_type;location;lat;lon;timestamp;P1;durP1;ratioP1;P2;durP2;ratioP2
44204;SDS011;30163;42.698;23.344;2022-11-20T00:00:29;21.00;;;9.23;;
44204;SDS011;30163;42.698;23.344;2022-11-20T00:02:54;23.88;;;7.80;;
44204;SDS011;30163;42.698;23.344;2022-11-20T00:05:19;13.30;;;7.78;;
44204;SDS011;30163;42.698;23.344;2022-11-20T00:07:45;10.75;;;6.47;;
44204;SDS011;30163;42.698;23.344;2022-11-20T00:10:11;17.17;;;7.30;;
44204;SDS011;30163;42.698;23.344;2022-11-20T00:12:36;6.25;;;2.58;;
44204;SDS011;30163;42.698;23.344;2022-11-20T00:15:02;16.75;;;5.32;;
44204;SDS011;30163;42.698;23.344;2022-11-20T00:17:28;15.80;;;5.90;;
44204;SDS011;30163;42.698;23.344;2022-11-20T00:19:53;14.63;;;6.20;;
44204;SDS011;30163;42.698;23.344;2022-11-20T00:22:19;19.45;;;7.45;;
44204;SDS011;30163;42.698;23.344;2022-11-20T00:24:44;17.30;;;7.32;;
44204;SDS011;30163;42.698;23.344;2022-11-20T00:27:10;16.80;;;5.85;;
44204;SDS011;30163;42.698;23.344;2022-11-20T00:29:35;14.95;;;6.00;;
44204;SDS011;30163;42.698;23.344;2022-11-20T00:32:00;11.05;;;5.30;;
44204;SDS011;30163;42.698;23.344;2022-11-20T00:34:26;16.73;;;5.80;;
44204;SDS011;30163;42.698;23.344;2022-11-20T00:36:51;7.85;;;4.97;;
44204;SDS011;30163;42.698;23.344;2022-11-20T00:39:17;6.95;;;3.35;;
44204;SDS011;30163;42.698;23.344;2022-11-20T00:41:42;12.27;;;4.43;;
44204;SDS011;30163;42.698;23.344;2022-11-20T00:44:07;8.77;;;2.90;;
44204;SDS011;30163;42.698;23.344;2022-11-20T00:46:33;11.75;;;3.00;;
44204;SDS011;30163;42.698;23.344;2022-11-20T00:48:59;6.30;;;3.40;;
44204;SDS011;30163;42.698;23.344;2022-11-20T00:51:25;5.75;;;3.35;;
44204;SDS011;30163;42.698;23.344;2022-11-20T00:53:51;9.52;;;3.80;;
44204;SDS011;30163;42.698;23.344;2022-11-20T00:56:17;7.13;;;2.45;;
44204;SDS011;30163;42.698;23.344;2022-11-20T00:58:44;4.75;;;2.42;;
44204;SDS011;30163;42.698;23.344;2022-11-20T01:01:16;6.00;;;2.65;;
44204;SDS011;30163;42.698;23.344;2022-11-20T01:03:49;9.38;;;3.22;;
44204;SDS011;30163;42.698;23.344;2022-11-20T01:06:16;6.10;;;2.97;;
44204;SDS011;30163;42.698;23.344;2022-11-20T01:08:42;3.55;;;1.83;;
44204;SDS011;30163;42.698;23.344;2022-11-20T01:11:13;6.53;;;1.77;;
44204;SDS011;30163;42.698;23.344;2022-11-20T01:13:40;8.40;;;1.98;;
44204;SDS011;30163;42.698;23.344;2022-11-20T01:16:13;8.45;;;2.83;;
44204;SDS011;30163;42.698;23.344;2022-11-20T01:18:59;5.60;;;2.15;;
44204;SDS011;30163;42.698;23.344;2022-11-20T01:21:27;3.92;;;2.80;;
44204;SDS011;30163;42.698;23.344;2022-11-20T01:23:54;7.75;;;2.00;;
44204;SDS011;30163;42.698;23.344;2022-11-20T01:26:23;7.13;;;2.50;;
44204;SDS011;30163;42.698;23.344;2022-11-20T01:28:53;7.63;;;2.40;;
44204;SDS011;30163;42.698;23.344;2022-11-20T01:31:23;6.32;;;1.70;;
44204;SDS011;30163;42.698;23.344;2022-11-20T01:33:51;15.17;;;1.83;;
44204;SDS011;30163;42.698;23.344;2022-11-20T01:36:18;3.95;;;1.75;;
44204;SDS011;30163;42.698;23.344;2022-11-20T01:38:45;4.45;;;1.60;;
44204;SDS011;30163;42.698;23.344;2022-11-20T01:41:11;5.32;;;1.70;;
44204;SDS011;30163;42.698;23.344;2022-11-20T01:43:57;9.45;;;2.08;;
44204;SDS011;30163;42.698;23.344;2022-11-20T01:46:23;3.90;;;1.50;;
44204;SDS011;30163;42.698;23.344;2022-11-20T01:49:09;6.07;;;2.45;;
44204;SDS011;30163;42.698;23.344;2022-11-20T01:54:36;10.32;;;2.67;;
44204;SDS011;30163;42.698;23.344;2022-11-20T01:57:04;7.03;;;2.78;;
44204;SDS011;30163;42.698;23.344;2022-11-20T01:59:31;5.53;;;2.38;;
44204;SDS011;30163;42.698;23.344;2022-11-20T02:01:57;7.25;;;2.33;;
44204;SDS011;30163;42.698;23.344;2022-11-20T02:04:22;4.47;;;2.40;;
44204;SDS011;30163;42.698;23.344;2022-11-20T02:06:50;6.30;;;2.58;;
44204;SDS011;30163;42.698;23.344;2022-11-20T02:09:16;5.88;;;2.47;;
44204;SDS011;30163;42.698;23.344;2022-11-20T02:11:42;3.65;;;1.80;;
44204;SDS011;30163;42.698;23.344;2022-11-20T02:14:08;7.13;;;2.10;;
44204;SDS011;30163;42.698;23.344;2022-11-20T02:16:37;9.57;;;1.73;;
44204;SDS011;30163;42.698;23.344;2022-11-20T02:19:04;3.47;;;1.65;;
44204;SDS011;30163;42.698;23.344;2022-11-20T02:21:49;5.70;;;2.40;;
44204;SDS011;30163;42.698;23.344;2022-11-20T02:24:18;5.68;;;2.20;;
44204;SDS011;30163;42.698;23.344;2022-11-20T02:26:49;4.35;;;2.00;;
44204;SDS011;30163;42.698;23.344;2022-11-20T02:29:16;3.80;;;1.60;;
44204;SDS011;30163;42.698;23.344;2022-11-20T02:31:44;3.83;;;1.98;;
44204;SDS011;30163;42.698;23.344;2022-11-20T02:34:10;6.43;;;1.80;;
44204;SDS011;30163;42.698;23.344;2022-11-20T02:36:36;4.00;;;1.70;;
44204;SDS011;30163;42.698;23.344;2022-11-20T02:39:04;10.80;;;1.88;;
44204;SDS011;30163;42.698;23.344;2022-11-20T02:41:38;5.22;;;1.33;;
44204;SDS011;30163;42.698;23.344;2022-11-20T02:44:04;4.60;;;1.80;;
44204;SDS011;30163;42.698;23.344;2022-11-20T02:46:30;8.15;;;1.40;;
44204;SDS011;30163;42.698;23.344;2022-11-20T02:48:56;6.78;;;1.77;;
44204;SDS011;30163;42.698;23.344;2022-11-20T02:51:21;5.63;;;1.90;;
44204;SDS011;30163;42.698;23.344;2022-11-20T02:53:47;3.60;;;1.50;;
44204;SDS011;30163;42.698;23.344;2022-11-20T02:56:12;2.83;;;1.33;;
44204;SDS011;30163;42.698;23.344;2022-11-20T02:58:38;8.35;;;1.80;;
44204;SDS011;30163;42.698;23.344;2022-11-20T03:01:03;2.50;;;1.33;;
44204;SDS011;30163;42.698;23.344;2022-11-20T03:03:29;4.40;;;1.73;;
44204;SDS011;30163;42.698;23.344;2022-11-20T03:05:54;5.72;;;1.75;;
44204;SDS011;30163;42.698;23.344;2022-11-20T03:08:19;9.35;;;1.90;;
44204;SDS011;30163;42.698;23.344;2022-11-20T03:10:45;11.07;;;2.03;;
44204;SDS011;30163;42.698;23.344;2022-11-20T03:13:10;6.78;;;2.03;;
44204;SDS011;30163;42.698;23.344;2022-11-20T03:15:36;5.93;;;1.70;;
44204;SDS011;30163;42.698;23.344;2022-11-20T03:18:02;7.38;;;1.55;;
44204;SDS011;30163;42.698;23.344;2022-11-20T03:20:27;14.02;;;2.25;;
44204;SDS011;30163;42.698;23.344;2022-11-20T03:22:53;4.07;;;1.50;;
44204;SDS011;30163;42.698;23.344;2022-11-20T03:25:19;8.50;;;1.85;;
44204;SDS011;30163;42.698;23.344;2022-11-20T03:27:44;6.18;;;2.08;;
44204;SDS011;30163;42.698;23.344;2022-11-20T03:30:10;9.90;;;1.92;;
44204;SDS011;30163;42.698;23.344;2022-11-20T03:32:35;8.48;;;1.45;;
44204;SDS011;30163;42.698;23.344;2022-11-20T03:35:01;6.57;;;1.73;;
44204;SDS011;30163;42.698;23.344;2022-11-20T03:37:26;9.52;;;2.00;;
44204;SDS011;30163;42.698;23.344;2022-11-20T03:39:52;5.40;;;2.97;;
44204;SDS011;30163;42.698;23.344;2022-11-20T03:42:17;9.07;;;2.72;;
44204;SDS011;30163;42.698;23.344;2022-11-20T03:45:01;6.00;;;2.10;;
44204;SDS011;30163;42.698;23.344;2022-11-20T03:47:27;7.80;;;1.80;;
44204;SDS011;30163;42.698;23.344;2022-11-20T03:49:52;2.92;;;1.63;;
44204;SDS011;30163;42.698;23.344;2022-11-20T03:52:18;7.90;;;2.00;;
44204;SDS011;30163;42.698;23.344;2022-11-20T03:54:43;2.97;;;1.35;;
44204;SDS011;30163;42.698;23.344;2022-11-20T03:57:08;6.30;;;1.70;;
44204;SDS011;30163;42.698;23.344;2022-11-20T03:59:34;7.88;;;1.80;;
44204;SDS011;30163;42.698;23.344;2022-11-20T04:01:59;10.88;;;1.85;;
44204;SDS011;30163;42.698;23.344;2022-11-20T04:04:24;7.55;;;1.95;;
44204;SDS011;30163;42.698;23.344;2022-11-20T04:06:50;2.40;;;1.35;;
44204;SDS011;30163;42.698;23.344;2022-11-20T04:09:15;5.75;;;1.20;;
44204;SDS011;30163;42.698;23.344;2022-11-20T04:11:41;8.10;;;1.90;;
44204;SDS011;30163;42.698;23.344;2022-11-20T04:14:11;5.38;;;2.20;;
44204;SDS011;30163;42.698;23.344;2022-11-20T04:16:38;3.17;;;2.30;;
44204;SDS011;30163;42.698;23.344;2022-11-20T04:19:04;5.25;;;1.77;;
44204;SDS011;30163;42.698;23.344;2022-11-20T04:21:31;9.15;;;1.70;;
44204;SDS011;30163;42.698;23.344;2022-11-20T04:23:56;4.50;;;1.73;;
44204;SDS011;30163;42.698;23.344;2022-11-20T04:26:23;5.72;;;2.33;;
44204;SDS011;30163;42.698;23.344;2022-11-20T04:28:49;7.25;;;1.90;;
44204;SDS011;30163;42.698;23.344;2022-11-20T04:31:16;8.68;;;1.73;;
44204;SDS011;30163;42.698;23.344;2022-11-20T04:33:43;3.53;;;1.98;;
44204;SDS011;30163;42.698;23.344;2022-11-20T04:38:38;4.68;;;1.77;;
44204;SDS011;30163;42.698;23.344;2022-11-20T04:41:04;10.15;;;1.63;;
44204;SDS011;30163;42.698;23.344;2022-11-20T04:43:31;4.60;;;1.55;;
44204;SDS011;30163;42.698;23.344;2022-11-20T04:45:57;6.95;;;1.60;;
44204;SDS011;30163;42.698;23.344;2022-11-20T04:48:24;3.00;;;1.42;;
44204;SDS011;30163;42.698;23.344;2022-11-20T04:50:50;3.97;;;1.65;;
44204;SDS011;30163;42.698;23.344;2022-11-20T04:53:16;5.50;;;1.48;;
44204;SDS011;30163;42.698;23.344;2022-11-20T04:55:41;6.53;;;1.70;;
44204;SDS011;30163;42.698;23.344;2022-11-20T04:58:07;2.70;;;1.25;;
44204;SDS011;30163;42.698;23.344;2022-11-20T05:00:33;12.60;;;2.13;;
44204;SDS011;30163;42.698;23.344;2022-11-20T05:02:58;6.50;;;1.40;;
44204;SDS011;30163;42.698;23.344;2022-11-20T05:05:24;6.50;;;1.85;;
44204;SDS011;30163;42.698;23.344;2022-11-20T05:07:49;4.13;;;1.80;;
44204;SDS011;30163;42.698;23.344;2022-11-20T05:10:14;5.97;;;1.55;;
44204;SDS011;30163;42.698;23.344;2022-11-20T05:12:40;2.58;;;1.33;;
44204;SDS011;30163;42.698;23.344;2022-11-20T05:15:06;10.05;;;1.45;;
44204;SDS011;30163;42.698;23.344;2022-11-20T05:17:31;8.73;;;1.88;;
44204;SDS011;30163;42.698;23.344;2022-11-20T05:19:57;5.90;;;1.98;;
44204;SDS011;30163;42.698;23.344;2022-11-20T05:22:22;3.22;;;1.40;;
44204;SDS011;30163;42.698;23.344;2022-11-20T05:24:47;7.63;;;1.75;;
44204;SDS011;30163;42.698;23.344;2022-11-20T05:27:13;8.50;;;1.73;;
44204;SDS011;30163;42.698;23.344;2022-11-20T05:29:38;3.40;;;1.77;;
44204;SDS011;30163;42.698;23.344;2022-11-20T05:32:04;7.53;;;2.20;;
44204;SDS011;30163;42.698;23.344;2022-11-20T05:34:31;9.15;;;2.30;;
44204;SDS011;30163;42.698;23.344;2022-11-20T05:36:56;5.05;;;1.75;;
44204;SDS011;30163;42.698;23.344;2022-11-20T05:39:22;5.78;;;1.67;;
44204;SDS011;30163;42.698;23.344;2022-11-20T05:41:47;4.72;;;1.83;;
44204;SDS011;30163;42.698;23.344;2022-11-20T05:44:32;3.60;;;1.85;;
44204;SDS011;30163;42.698;23.344;2022-11-20T05:46:58;8.68;;;2.30;;
44204;SDS011;30163;42.698;23.344;2022-11-20T05:49:23;6.00;;;2.15;;
44204;SDS011;30163;42.698;23.344;2022-11-20T05:51:49;5.68;;;2.60;;
44204;SDS011;30163;42.698;23.344;2022-11-20T05:54:14;9.13;;;2.85;;
44204;SDS011;30163;42.698;23.344;2022-11-20T05:56:39;12.82;;;2.92;;
44204;SDS011;30163;42.698;23.344;2022-11-20T05:59:05;10.50;;;2.45;;
44204;SDS011;30163;42.698;23.344;2022-11-20T06:01:30;10.63;;;2.60;;
44204;SDS011;30163;42.698;23.344;2022-11-20T06:03:56;14.43;;;2.80;;
44204;SDS011;30163;42.698;23.344;2022-11-20T06:06:21;10.20;;;2.63;;
44204;SDS011;30163;42.698;23.344;2022-11-20T06:08:47;8.70;;;2.08;;
44204;SDS011;30163;42.698;23.344;2022-11-20T06:11:13;4.07;;;1.95;;
44204;SDS011;30163;42.698;23.344;2022-11-20T06:13:40;5.25;;;1.70;;
44204;SDS011;30163;42.698;23.344;2022-11-20T06:16:06;9.52;;;1.92;;
44204;SDS011;30163;42.698;23.344;2022-11-20T06:18:31;11.73;;;2.40;;
44204;SDS011;30163;42.698;23.344;2022-11-20T06:21:01;7.03;;;2.13;;
44204;SDS011;30163;42.698;23.344;2022-11-20T06:23:31;7.43;;;2.03;;
44204;SDS011;30163;42.698;23.344;2022-11-20T06:25:58;4.57;;;1.92;;
44204;SDS011;30163;42.698;23.344;2022-11-20T06:28:26;6.50;;;1.95;;
44204;SDS011;30163;42.698;23.344;2022-11-20T06:30:54;9.70;;;2.08;;
44204;SDS011;30163;42.698;23.344;2022-11-20T06:33:19;16.48;;;2.15;;
44204;SDS011;30163;42.698;23.344;2022-11-20T06:35:44;10.70;;;2.25;;
44204;SDS011;30163;42.698;23.344;2022-11-20T06:38:10;12.35;;;2.47;;
44204;SDS011;30163;42.698;23.344;2022-11-20T06:40:35;4.82;;;2.00;;
44204;SDS011;30163;42.698;23.344;2022-11-20T06:43:01;11.10;;;2.67;;
44204;SDS011;30163;42.698;23.344;2022-11-20T06:45:26;6.70;;;2.35;;
44204;SDS011;30163;42.698;23.344;2022-11-20T06:47:51;12.90;;;2.30;;
44204;SDS011;30163;42.698;23.344;2022-11-20T06:50:17;8.82;;;2.67;;
44204;SDS011;30163;42.698;23.344;2022-11-20T06:52:42;11.32;;;3.05;;
44204;SDS011;30163;42.698;23.344;2022-11-20T06:55:08;8.73;;;2.83;;
44204;SDS011;30163;42.698;23.344;2022-11-20T06:57:33;8.15;;;2.63;;
44204;SDS011;30163;42.698;23.344;2022-11-20T06:59:58;5.22;;;2.75;;
44204;SDS011;30163;42.698;23.344;2022-11-20T07:02:24;11.40;;;2.83;;
44204;SDS011;30163;42.698;23.344;2022-11-20T07:04:49;7.25;;;2.70;;
44204;SDS011;30163;42.698;23.344;2022-11-20T07:07:14;11.13;;;3.13;;
44204;SDS011;30163;42.698;23.344;2022-11-20T07:09:40;6.82;;;2.75;;
44204;SDS011;30163;42.698;23.344;2022-11-20T07:12:05;6.15;;;2.10;;
44204;SDS011;30163;42.698;23.344;2022-11-20T07:14:31;5.25;;;2.17;;
44204;SDS011;30163;42.698;23.344;2022-11-20T07:16:56;9.63;;;2.22;;
44204;SDS011;30163;42.698;23.344;2022-11-20T07:19:21;15.57;;;2.67;;
44204;SDS011;30163;42.698;23.344;2022-11-20T07:21:47;5.07;;;1.80;;
44204;SDS011;30163;42.698;23.344;2022-11-20T07:24:12;13.63;;;2.88;;
44204;SDS011;30163;42.698;23.344;2022-11-20T07:26:38;10.43;;;2.03;;
44204;SDS011;30163;42.698;23.344;2022-11-20T07:29:03;6.15;;;1.63;;
44204;SDS011;30163;42.698;23.344;2022-11-20T07:31:28;6.43;;;2.05;;
44204;SDS011;30163;42.698;23.344;2022-11-20T07:33:54;7.95;;;2.42;;
44204;SDS011;30163;42.698;23.344;2022-11-20T07:36:19;10.43;;;3.08;;
44204;SDS011;30163;42.698;23.344;2022-11-20T07:38:44;5.63;;;2.30;;
44204;SDS011;30163;42.698;23.344;2022-11-20T07:41:10;10.55;;;2.42;;
44204;SDS011;30163;42.698;23.344;2022-11-20T07:43:35;11.68;;;2.97;;
44204;SDS011;30163;42.698;23.344;2022-11-20T07:46:00;18.52;;;3.42;;
44204;SDS011;30163;42.698;23.344;2022-11-20T07:48:26;13.27;;;3.75;;
44204;SDS011;30163;42.698;23.344;2022-11-20T07:50:55;11.63;;;4.43;;
44204;SDS011;30163;42.698;23.344;2022-11-20T07:53:20;11.38;;;4.60;;
44204;SDS011;30163;42.698;23.344;2022-11-20T07:55:46;15.38;;;4.93;;
44204;SDS011;30163;42.698;23.344;2022-11-20T07:58:12;12.60;;;4.85;;
44204;SDS011;30163;42.698;23.344;2022-11-20T08:00:39;11.27;;;4.85;;
44204;SDS011;30163;42.698;23.344;2022-11-20T08:03:04;14.25;;;5.28;;
44204;SDS011;30163;42.698;23.344;2022-11-20T08:05:30;15.02;;;4.45;;
44204;SDS011;30163;42.698;23.344;2022-11-20T08:07:55;7.90;;;3.90;;
44204;SDS011;30163;42.698;23.344;2022-11-20T08:10:21;14.77;;;3.50;;
44204;SDS011;30163;42.698;23.344;2022-11-20T08:12:47;15.02;;;3.75;;
44204;SDS011;30163;42.698;23.344;2022-11-20T08:15:32;10.73;;;3.50;;
44204;SDS011;30163;42.698;23.344;2022-11-20T08:18:01;12.55;;;3.70;;
44204;SDS011;30163;42.698;23.344;2022-11-20T08:20:34;10.05;;;3.75;;
44204;SDS011;30163;42.698;23.344;2022-11-20T08:23:00;10.18;;;3.63;;
44204;SDS011;30163;42.698;23.344;2022-11-20T08:25:29;14.82;;;3.50;;
44204;SDS011;30163;42.698;23.344;2022-11-20T08:27:58;11.63;;;2.80;;
44204;SDS011;30163;42.698;23.344;2022-11-20T08:30:25;10.02;;;2.67;;
44204;SDS011;30163;42.698;23.344;2022-11-20T08:32:51;16.02;;;2.75;;
44204;SDS011;30163;42.698;23.344;2022-11-20T08:35:17;15.73;;;5.10;;
44204;SDS011;30163;42.698;23.344;2022-11-20T08:37:45;25.65;;;4.13;;
44204;SDS011;30163;42.698;23.344;2022-11-20T08:40:11;10.77;;;4.07;;
44204;SDS011;30163;42.698;23.344;2022-11-20T08:42:37;15.85;;;4.40;;
44204;SDS011;30163;42.698;23.344;2022-11-20T08:45:02;27.70;;;5.75;;
44204;SDS011;30163;42.698;23.344;2022-11-20T08:47:28;85.10;;;30.50;;
44204;SDS011;30163;42.698;23.344;2022-11-20T08:49:53;10.63;;;4.03;;
44204;SDS011;30163;42.698;23.344;2022-11-20T08:52:19;14.32;;;3.97;;
44204;SDS011;30163;42.698;23.344;2022-11-20T08:54:44;9.10;;;2.97;;
44204;SDS011;30163;42.698;23.344;2022-11-20T08:57:09;7.88;;;2.75;;
44204;SDS011;30163;42.698;23.344;2022-11-20T08:59:35;14.13;;;2.63;;
44204;SDS011;30163;42.698;23.344;2022-11-20T09:02:00;10.85;;;2.60;;
44204;SDS011;30163;42.698;23.344;2022-11-20T09:04:25;14.30;;;3.50;;
44204;SDS011;30163;42.698;23.344;2022-11-20T09:06:51;14.23;;;4.45;;
44204;SDS011;30163;42.698;23.344;2022-11-20T09:09:17;11.63;;;3.53;;
44204;SDS011;30163;42.698;23.344;2022-11-20T09:11:43;12.88;;;3.55;;
44204;SDS011;30163;42.698;23.344;2022-11-20T09:14:08;7.32;;;2.88;;
44204;SDS011;30163;42.698;23.344;2022-11-20T09:16:34;8.18;;;4.00;;
44204;SDS011;30163;42.698;23.344;2022-11-20T09:18:59;10.38;;;3.50;;
44204;SDS011;30163;42.698;23.344;2022-11-20T09:21:25;15.98;;;5.10;;
44204;SDS011;30163;42.698;23.344;2022-11-20T09:23:50;16.33;;;3.85;;
44204;SDS011;30163;42.698;23.344;2022-11-20T09:26:15;12.90;;;3.83;;
44204;SDS011;30163;42.698;23.344;2022-11-20T09:28:41;15.30;;;4.90;;
44204;SDS011;30163;42.698;23.344;2022-11-20T09:31:07;14.55;;;5.47;;
44204;SDS011;30163;42.698;23.344;2022-11-20T09:33:33;9.50;;;3.30;;
44204;SDS011;30163;42.698;23.344;2022-11-20T09:35:58;16.92;;;4.18;;
44204;SDS011;30163;42.698;23.344;2022-11-20T09:38:24;17.25;;;4.85;;
44204;SDS011;30163;42.698;23.344;2022-11-20T09:40:57;6.60;;;3.03;;
44204;SDS011;30163;42.698;23.344;2022-11-20T09:54:17;21.10;;;6.45;;
44204;SDS011;30163;42.698;23.344;2022-11-20T09:56:53;10.13;;;4.40;;
44204;SDS011;30163;42.698;23.344;2022-11-20T09:59:26;16.90;;;6.15;;
44204;SDS011;30163;42.698;23.344;2022-11-20T10:01:56;34.88;;;16.00;;
44204;SDS011;30163;42.698;23.344;2022-11-20T10:04:22;34.50;;;18.85;;
44204;SDS011;30163;42.698;23.344;2022-11-20T10:06:56;27.00;;;10.77;;
44204;SDS011;30163;42.698;23.344;2022-11-20T10:09:29;19.92;;;6.25;;
44204;SDS011;30163;42.698;23.344;2022-11-20T10:20:01;24.30;;;8.35;;
44204;SDS011;30163;42.698;23.344;2022-11-20T10:22:43;18.95;;;8.13;;
44204;SDS011;30163;42.698;23.344;2022-11-20T10:25:24;14.95;;;5.30;;
44204;SDS011;30163;42.698;23.344;2022-11-20T10:28:34;15.45;;;6.18;;
44204;SDS011;30163;42.698;23.344;2022-11-20T10:31:09;13.85;;;6.53;;
44204;SDS011;30163;42.698;23.344;2022-11-20T10:33:41;33.75;;;8.10;;
44204;SDS011;30163;42.698;23.344;2022-11-20T10:36:14;22.48;;;7.93;;
44204;SDS011;30163;42.698;23.344;2022-11-20T10:39:16;15.70;;;6.60;;
44204;SDS011;30163;42.698;23.344;2022-11-20T10:41:44;16.38;;;7.40;;
44204;SDS011;30163;42.698;23.344;2022-11-20T10:47:04;21.42;;;7.60;;
44204;SDS011;30163;42.698;23.344;2022-11-20T10:49:30;24.92;;;7.72;;
44204;SDS011;30163;42.698;23.344;2022-11-20T11:00:26;19.88;;;6.78;;
44204;SDS011;30163;42.698;23.344;2022-11-20T11:02:52;16.88;;;6.43;;
44204;SDS011;30163;42.698;23.344;2022-11-20T11:07:45;22.27;;;7.88;;
44204;SDS011;30163;42.698;23.344;2022-11-20T11:10:19;14.70;;;5.30;;
44204;SDS011;30163;42.698;23.344;2022-11-20T11:12:48;17.40;;;3.35;;
44204;SDS011;30163;42.698;23.344;2022-11-20T11:17:55;5.70;;;2.58;;
44204;SDS011;30163;42.698;23.344;2022-11-20T11:20:22;7.85;;;2.88;;
44204;SDS011;30163;42.698;23.344;2022-11-20T11:22:58;15.15;;;3.70;;
44204;SDS011;30163;42.698;23.344;2022-11-20T11:30:42;8.77;;;2.80;;
44204;SDS011;30163;42.698;23.344;2022-11-20T11:33:10;6.60;;;2.40;;
44204;SDS011;30163;42.698;23.344;2022-11-20T11:35:56;9.85;;;3.00;;
44204;SDS011;30163;42.698;23.344;2022-11-20T11:41:16;3.92;;;2.00;;
44204;SDS011;30163;42.698;23.344;2022-11-20T11:43:49;6.20;;;1.83;;
44204;SDS011;30163;42.698;23.344;2022-11-20T11:46:35;6.97;;;2.10;;
44204;SDS011;30163;42.698;23.344;2022-11-20T11:56:59;10.32;;;2.08;;
44204;SDS011;30163;42.698;23.344;2022-11-20T11:59:51;8.13;;;3.00;;
44204;SDS011;30163;42.698;23.344;2022-11-20T12:02:42;14.82;;;2.72;;
44204;SDS011;30163;42.698;23.344;2022-11-20T12:13:58;3.42;;;2.22;;
44204;SDS011;30163;42.698;23.344;2022-11-20T12:15:58;10.55;;;2.17;;
44204;SDS011;30163;42.698;23.344;2022-11-20T12:18:24;11.02;;;2.33;;
44204;SDS011;30163;42.698;23.344;2022-11-20T12:23:51;7.50;;;3.70;;
44204;SDS011;30163;42.698;23.344;2022-11-20T12:26:31;8.02;;;1.83;;
44204;SDS011;30163;42.698;23.344;2022-11-20T12:34:55;13.82;;;3.10;;
44204;SDS011;30163;42.698;23.344;2022-11-20T12:43:01;9.52;;;2.25;;
44204;SDS011;30163;42.698;23.344;2022-11-20T12:51:24;13.77;;;5.90;;
44204;SDS011;30163;42.698;23.344;2022-11-20T12:59:46;24.48;;;8.45;;
44204;SDS011;30163;42.698;23.344;2022-11-20T13:07:24;12.48;;;4.03;;
44204;SDS011;30163;42.698;23.344;2022-11-20T13:09:49;10.32;;;4.57;;
44204;SDS011;30163;42.698;23.344;2022-11-20T13:15:14;18.05;;;7.75;;
44204;SDS011;30163;42.698;23.344;2022-11-20T13:17:54;18.67;;;7.20;;
44204;SDS011;30163;42.698;23.344;2022-11-20T13:20:23;15.15;;;5.80;;
44204;SDS011;30163;42.698;23.344;2022-11-20T13:22:49;20.08;;;6.57;;
44204;SDS011;30163;42.698;23.344;2022-11-20T13:25:26;19.83;;;5.78;;
44204;SDS011;30163;42.698;23.344;2022-11-20T13:27:55;11.73;;;4.10;;
44204;SDS011;30163;42.698;23.344;2022-11-20T13:30:23;17.70;;;5.22;;
44204;SDS011;30163;42.698;23.344;2022-11-20T13:32:50;10.68;;;5.25;;
44204;SDS011;30163;42.698;23.344;2022-11-20T13:35:37;18.05;;;6.80;;
44204;SDS011;30163;42.698;23.344;2022-11-20T13:38:09;27.95;;;5.28;;
44204;SDS011;30163;42.698;23.344;2022-11-20T13:40:37;11.38;;;5.28;;
44204;SDS011;30163;42.698;23.344;2022-11-20T13:46:09;14.73;;;5.50;;
44204;SDS011;30163;42.698;23.344;2022-11-20T13:48:39;19.77;;;7.63;;
44204;SDS011;30163;42.698;23.344;2022-11-20T14:02:44;17.38;;;6.57;;
44204;SDS011;30163;42.698;23.344;2022-11-20T14:05:38;22.42;;;8.35;;
44204;SDS011;30163;42.698;23.344;2022-11-20T14:08:06;27.60;;;8.23;;
44204;SDS011;30163;42.698;23.344;2022-11-20T14:10:31;24.75;;;7.50;;
44204;SDS011;30163;42.698;23.344;2022-11-20T14:12:57;21.15;;;7.90;;
44204;SDS011;30163;42.698;23.344;2022-11-20T14:15:27;14.18;;;7.75;;
44204;SDS011;30163;42.698;23.344;2022-11-20T14:17:53;26.90;;;9.68;;
44204;SDS011;30163;42.698;23.344;2022-11-20T14:20:19;20.50;;;10.02;;
44204;SDS011;30163;42.698;23.344;2022-11-20T14:22:51;26.60;;;9.50;;
44204;SDS011;30163;42.698;23.344;2022-11-20T14:25:18;32.75;;;12.50;;
44204;SDS011;30163;42.698;23.344;2022-11-20T14:27:57;24.35;;;11.63;;
44204;SDS011;30163;42.698;23.344;2022-11-20T14:30:26;38.45;;;12.93;;
44204;SDS011;30163;42.698;23.344;2022-11-20T14:32:54;23.27;;;10.98;;
44204;SDS011;30163;42.698;23.344;2022-11-20T14:35:27;32.85;;;12.73;;
44204;SDS011;30163;42.698;23.344;2022-11-20T14:37:56;37.67;;;12.77;;
44204;SDS011;30163;42.698;23.344;2022-11-20T14:40:26;24.70;;;12.18;;
44204;SDS011;30163;42.698;23.344;2022-11-20T14:42:56;28.45;;;11.93;;
44204;SDS011;30163;42.698;23.344;2022-11-20T14:45:22;27.52;;;12.40;;
44204;SDS011;30163;42.698;23.344;2022-11-20T14:47:49;14.05;;;6.85;;
44204;SDS011;30163;42.698;23.344;2022-11-20T14:50:18;33.85;;;13.45;;
44204;SDS011;30163;42.698;23.344;2022-11-20T14:52:58;28.08;;;9.98;;
44204;SDS011;30163;42.698;23.344;2022-11-20T14:55:25;24.77;;;9.48;;
44204;SDS011;30163;42.698;23.344;2022-11-20T14:57:54;20.60;;;7.93;;
44204;SDS011;30163;42.698;23.344;2022-11-20T15:00:21;16.38;;;8.10;;
44204;SDS011;30163;42.698;23.344;2022-11-20T15:02:48;29.70;;;8.73;;
44204;SDS011;30163;42.698;23.344;2022-11-20T15:05:14;22.20;;;9.25;;
44204;SDS011;30163;42.698;23.344;2022-11-20T15:07:42;18.15;;;9.65;;
44204;SDS011;30163;42.698;23.344;2022-11-20T15:10:18;17.38;;;6.20;;
44204;SDS011;30163;42.698;23.344;2022-11-20T15:15:22;14.95;;;6.55;;
44204;SDS011;30163;42.698;23.344;2022-11-20T15:17:50;14.73;;;7.35;;
44204;SDS011;30163;42.698;23.344;2022-11-20T15:20:16;9.38;;;5.07;;
44204;SDS011;30163;42.698;23.344;2022-11-20T15:22:42;15.82;;;5.53;;
44204;SDS011;30163;42.698;23.344;2022-11-20T15:25:11;23.25;;;7.82;;
44204;SDS011;30163;42.698;23.344;2022-11-20T15:27:38;12.10;;;5.07;;
44204;SDS011;30163;42.698;23.344;2022-11-20T15:30:09;15.85;;;7.00;;
44204;SDS011;30163;42.698;23.344;2022-11-20T15:32:41;19.42;;;7.18;;
44204;SDS011;30163;42.698;23.344;2022-11-20T15:35:07;13.10;;;4.72;;
44204;SDS011;30163;42.698;23.344;2022-11-20T15:37:33;11.40;;;5.30;;
44204;SDS011;30163;42.698;23.344;2022-11-20T15:39:58;7.20;;;4.60;;
44204;SDS011;30163;42.698;23.344;2022-11-20T15:42:23;11.73;;;5.68;;
44204;SDS011;30163;42.698;23.344;2022-11-20T15:44:49;18.65;;;5.45;;
44204;SDS011;30163;42.698;23.344;2022-11-20T15:47:14;15.77;;;5.45;;
44204;SDS011;30163;42.698;23.344;2022-11-20T15:49:42;13.32;;;5.05;;
44204;SDS011;30163;42.698;23.344;2022-11-20T15:52:08;9.80;;;4.55;;
44204;SDS011;30163;42.698;23.344;2022-11-20T15:54:34;13.02;;;4.15;;
44204;SDS011;30163;42.698;23.344;2022-11-20T15:56:59;7.20;;;3.55;;
44204;SDS011;30163;42.698;23.344;2022-11-20T15:59:27;11.75;;;3.78;;
44204;SDS011;30163;42.698;23.344;2022-11-20T16:01:52;9.73;;;3.10;;
44204;SDS011;30163;42.698;23.344;2022-11-20T16:04:17;13.18;;;5.82;;
44204;SDS011;30163;42.698;23.344;2022-11-20T16:06:43;7.97;;;3.47;;
44204;SDS011;30163;42.698;23.344;2022-11-20T16:09:08;7.00;;;4.07;;
44204;SDS011;30163;42.698;23.344;2022-11-20T16:11:34;9.85;;;4.07;;
44204;SDS011;30163;42.698;23.344;2022-11-20T16:14:01;8.35;;;3.33;;
44204;SDS011;30163;42.698;23.344;2022-11-20T16:16:46;7.38;;;2.63;;
44204;SDS011;30163;42.698;23.344;2022-11-20T16:19:12;12.10;;;3.28;;
44204;SDS011;30163;42.698;23.344;2022-11-20T16:21:39;10.75;;;3.00;;
44204;SDS011;30163;42.698;23.344;2022-11-20T16:24:06;10.38;;;4.25;;
44204;SDS011;30163;42.698;23.344;2022-11-20T16:26:34;4.95;;;2.65;;
44204;SDS011;30163;42.698;23.344;2022-11-20T16:29:00;9.50;;;2.95;;